Hercules I — SVA7380 — position and weather

sailwx.info

Track history (hours):
 
Tides and Currents Weather Stations Pressure Air Temp Water Temp Dewpoint Dewpoint Depression Visibility Wind Speed Wind Dir Waves Ship Positions

Hercules I

Last reported at 2017-Dec-09 15:17 UTC. Time now 2017-Dec-13 03:44 UTC.
Position N 37°55' E 024°31'.

Length 89 m; draft 3.8 m.

Type: Cargo ship. MMSI: 241503000.

Date/timePositionNaut miles runAvg speedWind from/ knotsBaromVisibWave heightAir tempDewpointWater temp
2017-Dec-09 15:17N 37°55' E 024°31'3 7.7
2017-Dec-09 14:56N 37°56' E 024°28'17 6.2
2017-Dec-09 12:10N 38°06' E 024°10'  
2017-Dec-06 20:43N 38°11' E 024°07'  
2017-Dec-01 04:53N 38°42' E 024°09'2 6.2
2017-Dec-01 04:30N 38°41' E 024°11'48 6.7
2017-Nov-30 21:18N 37°55' E 024°31'2 7.6
2017-Nov-30 21:00N 37°54' E 024°29'3 6.3
2017-Nov-30 20:30N 37°54' E 024°25'16 5.2
2017-Nov-30 17:30N 38°05' E 024°11'  
Track history (hours):
 
Tides and Currents Weather Stations Pressure Air Temp Water Temp Dewpoint Dewpoint Depression Visibility Wind Speed Wind Dir Waves Ship Positions

Hercules I

Last reported at 2017-Dec-09 15:17 UTC. Time now 2017-Dec-13 03:44 UTC.
Position N 37°55' E 024°31'.

Length 89 m; draft 3.8 m.

Type: Cargo ship. MMSI: 241503000.

Date/timePositionNaut miles runAvg speedWind from/ knotsBaromVisibWave heightAir tempDewpointWater temp
2017-Dec-09 15:17N 37°55' E 024°31'3 7.7
2017-Dec-09 14:56N 37°56' E 024°28'17 6.2
2017-Dec-09 12:10N 38°06' E 024°10'  
2017-Dec-06 20:43N 38°11' E 024°07'  
2017-Dec-01 04:53N 38°42' E 024°09'2 6.2
2017-Dec-01 04:30N 38°41' E 024°11'48 6.7
2017-Nov-30 21:18N 37°55' E 024°31'2 7.6
2017-Nov-30 21:00N 37°54' E 024°29'3 6.3
2017-Nov-30 20:30N 37°54' E 024°25'16 5.2
2017-Nov-30 17:30N 38°05' E 024°11'  

Dump ship's entire track history